createdAt,value
2023-02-02T06:07:19.226Z,6.85
2023-02-02T06:09:47.899Z,6.20
2023-02-02T06:12:16.241Z,6.70
2023-02-02T06:14:44.954Z,6.13
2023-02-02T06:17:13.204Z,6.38
2023-02-02T06:19:41.927Z,9.52
2023-02-02T06:22:10.407Z,6.72
2023-02-02T06:24:39.016Z,6.45
2023-02-02T06:27:07.393Z,5.20
2023-02-02T06:29:35.993Z,6.15
2023-02-02T06:32:04.475Z,7.13
2023-02-02T06:34:33.067Z,10.13
2023-02-02T06:37:01.399Z,7.03
2023-02-02T06:39:30.101Z,8.80
2023-02-02T06:41:59.328Z,9.77
2023-02-02T06:44:30.641Z,7.05
2023-02-02T06:46:58.891Z,6.45
2023-02-02T06:49:27.524Z,7.18
2023-02-02T06:51:55.799Z,6.82
2023-02-02T06:54:24.481Z,13.18
2023-02-02T06:56:52.819Z,15.50
2023-02-02T06:59:21.930Z,10.20
2023-02-02T07:01:50.727Z,6.72
2023-02-02T07:04:19.971Z,7.50
2023-02-02T07:06:48.255Z,7.95
2023-02-02T07:09:17.085Z,7.32
2023-02-02T07:11:45.671Z,7.15
2023-02-02T07:14:14.483Z,7.55
2023-02-02T07:16:42.752Z,6.45
2023-02-02T07:19:11.367Z,5.88
2023-02-02T07:21:39.677Z,6.63
2023-02-02T07:24:08.774Z,5.75
2023-02-02T07:26:37.169Z,7.60
2023-02-02T07:29:06.726Z,7.20
2023-02-02T07:31:36.793Z,9.02
2023-02-02T07:34:05.937Z,6.57
2023-02-02T07:36:34.422Z,7.15
2023-02-02T07:39:04.982Z,6.40
2023-02-02T07:41:35.217Z,7.38
2023-02-02T07:44:04.636Z,6.60
2023-02-02T07:46:33.292Z,7.40
2023-02-02T07:49:01.912Z,8.80
2023-02-02T07:51:30.186Z,7.57
2023-02-02T07:53:59.567Z,5.95
2023-02-02T07:56:28.574Z,6.95
2023-02-02T07:58:58.099Z,7.70
2023-02-02T08:01:27.836Z,7.30
2023-02-02T08:04:00.428Z,7.38
2023-02-02T08:06:34.320Z,6.95
2023-02-02T08:09:05.242Z,6.28
2023-02-02T08:11:33.612Z,6.88
2023-02-02T08:14:04.073Z,6.75
2023-02-02T08:16:33.881Z,5.28
2023-02-02T08:19:02.858Z,5.03
2023-02-02T08:21:34.420Z,6.53
2023-02-02T08:24:04.693Z,4.65
2023-02-02T08:26:33.187Z,3.70
2023-02-02T08:29:04.904Z,4.25
2023-02-02T08:31:38.538Z,4.57
2023-02-02T08:34:07.202Z,5.55
2023-02-02T08:36:35.837Z,5.00
2023-02-02T08:39:07.168Z,4.20
2023-02-02T08:41:37.036Z,4.82
2023-02-02T08:44:11.600Z,4.80
2023-02-02T08:46:40.247Z,4.72
2023-02-02T08:49:12.251Z,4.47
2023-02-02T08:51:40.816Z,4.97
2023-02-02T08:54:09.511Z,5.60
2023-02-02T08:56:38.003Z,4.72
2023-02-02T08:59:06.808Z,6.57
2023-02-02T09:01:36.148Z,5.70
2023-02-02T09:04:07.362Z,5.57
2023-02-02T09:06:38.509Z,5.60
2023-02-02T09:11:36.590Z,5.20
2023-02-02T09:14:06.821Z,5.53
2023-02-02T09:16:36.373Z,6.32
2023-02-02T09:19:05.796Z,6.20
2023-02-02T09:21:37.124Z,5.20
2023-02-02T09:24:10.746Z,5.80
2023-02-02T09:26:40.539Z,5.93
2023-02-02T09:29:12.795Z,6.40
2023-02-02T09:31:41.318Z,6.68
2023-02-02T09:34:12.486Z,7.03
2023-02-02T09:36:41.432Z,7.15
2023-02-02T09:39:13.017Z,6.18
2023-02-02T09:41:41.849Z,6.30
2023-02-02T09:44:16.288Z,7.38
2023-02-02T09:46:50.540Z,6.10
2023-02-02T09:49:32.375Z,7.65
2023-02-02T09:52:04.021Z,7.78
2023-02-02T09:54:45.463Z,6.60
2023-02-02T09:57:22.524Z,6.05
2023-02-02T09:59:52.510Z,6.32
2023-02-02T10:02:41.391Z,6.40
2023-02-02T10:05:34.433Z,5.82
2023-02-02T10:08:05.448Z,5.63
2023-02-02T10:10:38.359Z,5.53
2023-02-02T10:13:26.084Z,5.35
2023-02-02T10:16:18.066Z,5.82
2023-02-02T10:19:07.065Z,5.38
2023-02-02T10:22:00.659Z,6.07
2023-02-02T10:24:30.480Z,5.97
2023-02-02T10:27:05.717Z,5.57
2023-02-02T10:29:51.669Z,5.20
2023-02-02T10:32:25.576Z,5.40
2023-02-02T10:35:28.850Z,5.10
2023-02-02T10:38:05.985Z,5.63
2023-02-02T10:40:46.824Z,4.63
2023-02-02T10:43:45.879Z,4.63
2023-02-02T10:46:37.647Z,4.82
2023-02-02T10:49:27.645Z,4.57
2023-02-02T10:52:18.135Z,4.85
2023-02-02T10:55:04.178Z,4.53
2023-02-02T10:58:00.815Z,4.47
2023-02-02T11:00:35.448Z,4.32
2023-02-02T11:03:07.187Z,4.20
2023-02-02T11:05:54.422Z,3.92
2023-02-02T11:08:36.776Z,4.38
2023-02-02T11:11:17.327Z,4.40
2023-02-02T11:14:20.644Z,4.35
2023-02-02T11:17:02.584Z,4.18
2023-02-02T11:19:32.537Z,3.90
2023-02-02T11:22:03.986Z,5.05
2023-02-02T11:24:38.892Z,4.82
2023-02-02T11:27:20.214Z,4.50
2023-02-02T11:29:53.774Z,5.10
2023-02-02T11:32:30.161Z,4.97
2023-02-02T11:35:04.450Z,5.78
2023-02-02T11:37:35.037Z,5.85
2023-02-02T11:40:32.112Z,6.50
2023-02-02T11:43:06.383Z,6.20
2023-02-02T11:45:37.845Z,6.10
2023-02-02T11:48:16.595Z,7.70
2023-02-02T11:50:50.196Z,7.07
2023-02-02T11:53:28.168Z,7.15
2023-02-02T11:55:58.188Z,7.60
2023-02-02T11:58:29.079Z,7.80
2023-02-02T12:01:03.811Z,7.63
2023-02-02T12:03:39.797Z,7.70
2023-02-02T12:06:26.338Z,7.70
2023-02-02T12:08:58.687Z,8.02
2023-02-02T12:11:52.256Z,7.75
2023-02-02T12:14:35.464Z,8.57
2023-02-02T12:17:27.441Z,7.10
2023-02-02T12:20:08.895Z,8.65
2023-02-02T12:22:46.172Z,7.85
2023-02-02T12:25:36.210Z,7.93
2023-02-02T12:28:39.135Z,8.30
2023-02-02T12:31:26.855Z,8.30
2023-02-02T12:34:32.619Z,9.13
2023-02-02T12:37:23.096Z,7.43
2023-02-02T12:39:57.488Z,7.70
2023-02-02T12:42:37.814Z,7.38
2023-02-02T12:45:12.286Z,6.95
2023-02-02T12:47:43.910Z,5.95
2023-02-02T12:50:24.743Z,6.75
2023-02-02T12:53:37.019Z,6.32
2023-02-02T12:56:15.184Z,6.28
2023-02-02T12:59:25.430Z,5.65
2023-02-02T13:02:05.833Z,5.40
2023-02-02T13:05:06.096Z,5.63
2023-02-02T13:07:56.051Z,5.03
2023-02-02T13:10:38.864Z,4.47
2023-02-02T13:13:09.206Z,3.17
2023-02-02T13:15:41.309Z,3.10
2023-02-02T13:18:24.101Z,3.00
2023-02-02T13:21:05.821Z,2.90
2023-02-02T13:23:56.852Z,3.90
2023-02-02T13:26:35.436Z,3.40
2023-02-02T13:29:06.875Z,3.65
2023-02-02T13:31:50.301Z,3.42
2023-02-02T13:34:40.522Z,4.25
2023-02-02T13:37:32.217Z,4.13
2023-02-02T13:40:22.608Z,3.88
2023-02-02T13:42:59.770Z,3.78
2023-02-02T13:45:55.604Z,3.63
2023-02-02T13:48:33.039Z,3.78
2023-02-02T13:51:22.089Z,4.35
2023-02-02T13:53:56.694Z,4.05
2023-02-02T13:56:28.699Z,4.70
2023-02-02T13:59:24.314Z,4.25
2023-02-02T14:01:53.061Z,4.00
2023-02-02T14:04:30.590Z,4.57
2023-02-02T14:07:06.271Z,4.13
2023-02-02T14:09:37.462Z,4.00
2023-02-02T14:12:10.603Z,4.88
2023-02-02T14:14:40.356Z,4.63
2023-02-02T14:17:32.187Z,4.82
2023-02-02T14:22:44.655Z,5.18
2023-02-02T14:25:34.210Z,4.30
2023-02-02T14:28:11.049Z,5.13
2023-02-02T14:30:40.309Z,5.97
2023-02-02T14:33:25.937Z,4.38
2023-02-02T14:36:01.577Z,4.85
2023-02-02T14:39:01.181Z,6.15
2023-02-02T14:42:01.714Z,6.10
2023-02-02T14:44:30.773Z,5.10
2023-02-02T14:46:59.562Z,4.68
2023-02-02T14:49:35.578Z,4.32
2023-02-02T14:52:05.537Z,4.85
2023-02-02T14:54:37.975Z,4.50
2023-02-02T14:57:27.656Z,3.78
2023-02-02T14:59:58.174Z,4.50
2023-02-02T15:02:37.251Z,3.95
2023-02-02T15:05:39.023Z,3.72
2023-02-02T15:08:27.974Z,4.13
2023-02-02T15:11:00.783Z,4.47
2023-02-02T15:13:37.790Z,4.30
2023-02-02T15:16:21.694Z,4.43
2023-02-02T15:19:00.332Z,4.30
2023-02-02T15:21:29.051Z,4.05
2023-02-02T15:23:57.954Z,4.50
2023-02-02T15:26:33.333Z,3.35
2023-02-02T15:29:08.213Z,3.15
2023-02-02T15:31:50.227Z,2.80
2023-02-02T15:34:33.985Z,2.58
2023-02-02T15:37:06.191Z,2.58
2023-02-02T15:39:40.055Z,6.20
2023-02-02T15:42:42.584Z,2.90
2023-02-02T15:45:45.712Z,2.83
2023-02-02T15:48:22.182Z,1.60
2023-02-02T15:50:55.729Z,2.17
2023-02-02T15:53:43.949Z,2.20
2023-02-02T15:56:39.231Z,2.17
2023-02-02T15:59:26.791Z,2.97
2023-02-02T16:02:07.804Z,3.10
2023-02-02T16:04:42.682Z,4.00
2023-02-02T16:07:21.484Z,3.58
2023-02-02T16:09:49.900Z,5.35
2023-02-02T16:12:21.412Z,4.60
2023-02-02T16:14:52.506Z,4.45
2023-02-02T16:17:21.669Z,4.65
2023-02-02T16:19:59.066Z,4.65
2023-02-02T16:22:28.182Z,4.35
2023-02-02T16:24:58.818Z,3.70
2023-02-02T16:27:29.635Z,2.97
2023-02-02T16:30:01.694Z,3.00
2023-02-02T16:32:35.824Z,3.60
2023-02-02T16:35:34.563Z,3.10
2023-02-02T16:38:33.664Z,3.70
2023-02-02T16:41:14.408Z,3.90
2023-02-02T16:43:43.730Z,4.03
2023-02-02T16:46:14.812Z,4.20
2023-02-02T16:48:56.265Z,3.65
2023-02-02T16:51:31.604Z,4.07
2023-02-02T16:54:03.683Z,4.38
2023-02-02T16:56:37.609Z,4.30
2023-02-02T16:59:35.351Z,3.95
2023-02-02T17:02:28.201Z,4.78
2023-02-02T17:05:06.302Z,4.47
2023-02-02T17:07:36.410Z,4.70
2023-02-02T17:10:25.439Z,5.13
2023-02-02T17:12:54.038Z,5.13
2023-02-02T17:15:35.444Z,5.03
2023-02-02T17:18:05.569Z,4.88
2023-02-02T17:20:34.792Z,4.35
2023-02-02T17:23:07.036Z,4.82
2023-02-02T17:25:38.594Z,4.72
2023-02-02T17:28:12.643Z,5.05
2023-02-02T17:30:45.909Z,4.65
2023-02-02T17:33:16.017Z,5.07
2023-02-02T17:35:55.607Z,4.18
2023-02-02T17:38:25.431Z,4.90
2023-02-02T17:41:01.246Z,5.05
2023-02-02T17:43:31.211Z,5.20
2023-02-02T17:46:00.585Z,5.72
2023-02-02T17:48:29.041Z,7.47
2023-02-02T17:50:57.874Z,5.57
2023-02-02T17:53:27.826Z,5.75
2023-02-02T17:55:56.564Z,6.60
2023-02-02T17:58:24.956Z,5.03
2023-02-02T18:00:55.494Z,5.63
2023-02-02T18:03:35.204Z,5.85
2023-02-02T18:06:04.224Z,6.18
2023-02-02T18:08:33.618Z,5.53
2023-02-02T18:11:02.516Z,16.05
2023-02-02T18:13:30.847Z,6.30
2023-02-02T18:16:00.080Z,5.45
2023-02-02T18:18:29.906Z,5.65
2023-02-02T18:20:59.123Z,5.43
2023-02-02T18:23:27.950Z,5.75
2023-02-02T18:25:56.824Z,5.07
2023-02-02T18:28:25.074Z,5.65
2023-02-02T18:30:53.811Z,6.25
2023-02-02T18:33:23.509Z,5.95
2023-02-02T18:35:52.243Z,6.22
2023-02-02T18:38:21.407Z,5.28
2023-02-02T18:40:59.215Z,5.05
2023-02-02T18:43:27.543Z,5.22
2023-02-02T18:46:04.673Z,5.03
2023-02-02T18:48:33.735Z,5.20
2023-02-02T18:51:06.571Z,5.78
2023-02-02T18:53:35.086Z,5.68
2023-02-02T18:56:07.872Z,5.68
2023-02-02T18:58:36.931Z,5.60
2023-02-02T19:01:10.039Z,5.30
2023-02-02T19:03:39.576Z,5.90
2023-02-02T19:06:27.999Z,4.93
2023-02-02T19:08:56.495Z,4.13
2023-02-02T19:11:28.202Z,5.00
2023-02-02T19:13:57.090Z,4.25
2023-02-02T19:16:30.744Z,4.97
2023-02-02T19:19:12.390Z,3.85
2023-02-02T19:21:42.234Z,4.13
2023-02-02T19:24:14.673Z,4.30
2023-02-02T19:26:47.061Z,4.25
2023-02-02T19:29:19.557Z,4.60
2023-02-02T19:31:53.764Z,3.95
2023-02-02T19:34:23.599Z,4.03
2023-02-02T19:36:52.435Z,5.30
2023-02-02T19:39:24.843Z,6.13
2023-02-02T19:41:54.506Z,4.68
2023-02-02T19:44:24.149Z,5.28
2023-02-02T19:46:54.024Z,5.30
2023-02-02T19:49:34.816Z,5.18
2023-02-02T19:52:04.219Z,4.57
2023-02-02T19:54:50.760Z,4.95
2023-02-02T19:57:38.597Z,5.00
2023-02-02T20:00:30.302Z,3.50
2023-02-02T20:03:07.609Z,3.78
2023-02-02T20:05:41.578Z,4.55
2023-02-02T20:08:26.706Z,4.18
2023-02-02T20:11:01.009Z,4.07
2023-02-02T20:13:36.497Z,4.15
2023-02-02T20:16:05.769Z,4.18
2023-02-02T20:18:45.687Z,4.07
2023-02-02T20:21:35.023Z,4.22
2023-02-02T20:24:04.540Z,3.55
2023-02-02T20:26:38.493Z,4.53
2023-02-02T20:29:23.246Z,4.10
2023-02-02T20:31:54.101Z,5.15
2023-02-02T20:34:32.914Z,5.03
2023-02-02T20:37:25.523Z,4.78
2023-02-02T20:39:58.797Z,4.85
2023-02-02T20:42:27.608Z,4.78
2023-02-02T20:44:58.254Z,5.35
2023-02-02T20:47:26.658Z,5.05
2023-02-02T20:49:57.419Z,4.22
2023-02-02T20:52:26.411Z,4.65
2023-02-02T20:54:55.110Z,4.97
2023-02-02T20:57:23.461Z,4.45
2023-02-02T20:59:57.565Z,5.32
2023-02-02T21:02:27.158Z,5.55
2023-02-02T21:04:55.910Z,5.70
2023-02-02T21:07:24.264Z,6.00
2023-02-02T21:09:53.136Z,5.75
2023-02-02T21:12:25.514Z,5.45
2023-02-02T21:14:55.526Z,6.38
2023-02-02T21:17:23.872Z,5.90
2023-02-02T21:19:52.638Z,5.93
2023-02-02T21:22:21.129Z,5.15
2023-02-02T21:24:49.822Z,6.32
2023-02-02T21:27:18.318Z,7.30
2023-02-02T21:29:46.948Z,6.32
2023-02-02T21:32:15.297Z,6.30
2023-02-02T21:34:43.966Z,6.28
2023-02-02T21:37:16.305Z,6.50
2023-02-02T21:39:49.658Z,5.80
2023-02-02T21:42:22.484Z,6.63
2023-02-02T21:44:56.399Z,5.95
2023-02-02T21:47:36.453Z,5.80
2023-02-02T21:50:29.634Z,6.35
2023-02-02T21:53:23.684Z,6.20
2023-02-02T21:55:57.164Z,5.57
2023-02-02T21:58:34.032Z,6.25
2023-02-02T22:01:22.575Z,6.13
2023-02-02T22:03:51.206Z,7.07
2023-02-02T22:06:28.252Z,6.82
2023-02-02T22:09:19.475Z,6.72
2023-02-02T22:11:51.397Z,6.25
2023-02-02T22:16:51.679Z,9.35
2023-02-02T22:19:28.850Z,7.00
2023-02-02T22:22:09.386Z,6.13
2023-02-02T22:24:38.223Z,6.70
2023-02-02T22:27:23.663Z,5.50
2023-02-02T22:30:01.171Z,6.15
2023-02-02T22:32:29.865Z,5.95
2023-02-02T22:34:58.110Z,6.78
2023-02-02T22:37:26.730Z,6.18
2023-02-02T22:39:55.018Z,5.75
2023-02-02T22:42:23.645Z,5.38
2023-02-02T22:44:52.022Z,5.75
2023-02-02T22:47:20.681Z,5.00
2023-02-02T22:49:49.166Z,5.28
2023-02-02T22:52:17.993Z,5.43
2023-02-02T22:54:46.271Z,5.47
2023-02-02T22:57:14.853Z,4.75
2023-02-02T22:59:43.185Z,4.65
2023-02-02T23:02:11.806Z,5.10
2023-02-02T23:04:40.144Z,5.05
2023-02-02T23:07:08.793Z,4.85
2023-02-02T23:09:37.085Z,4.28
2023-02-02T23:12:06.040Z,4.80
2023-02-02T23:14:34.313Z,5.72
2023-02-02T23:17:03.095Z,5.15
2023-02-02T23:19:31.386Z,5.20
2023-02-02T23:22:00.009Z,5.25
2023-02-02T23:24:28.333Z,5.05
2023-02-02T23:26:56.973Z,6.35
2023-02-02T23:29:25.248Z,5.47
2023-02-02T23:31:54.143Z,6.45
2023-02-02T23:34:22.463Z,6.43
2023-02-02T23:36:52.727Z,10.23
2023-02-02T23:39:21.134Z,11.85
2023-02-02T23:41:49.770Z,13.88
2023-02-02T23:44:18.169Z,12.93
2023-02-02T23:46:47.005Z,10.02
2023-02-02T23:49:15.437Z,6.28
2023-02-02T23:51:44.307Z,5.07
2023-02-02T23:54:13.344Z,5.15
2023-02-02T23:56:42.923Z,4.95
2023-02-02T23:59:11.283Z,4.97
